Weather at Areyonga Airport

Public forecast

Using degrees Celsius for public forecast. Weather courtesy of forecast.io.

Closest aviation weather report (METAR) to Areyonga Airport

Closest report is Alice Springs Airport, 91.1 nm (168.7 km) E. Retrieved 2021/06/25 02:30 UTC (35 minutes ago):

YBAS 250230Z AUTO 16011KT 9999 // SCT040 13/04 Q1024 RF000/0000

Closest aviation forecast (TAF) to Areyonga Airport

Closest forecast is Alice Springs Airport, 91.1 nm (168.7 km) E. Retrieved 2021-06-25 00:00 UTC (3 hours ago):

TAF YBAS 242303Z 2500/2600 16010KT 9999 FEW045 FM250830 16006KT 9999 FEW050 FM251500 27005KT 9999 SCT040